sensor_id;sensor_type;location;lat;lon;timestamp;pressure;altitude;pressure_sealevel;temperature;humidity
11444;BME280;5778;47.856;12.154;2023-07-20T00:01:33;96156.56;;;19.17;100.00
11444;BME280;5778;47.856;12.154;2023-07-20T00:04:00;96212.59;;;18.76;100.00
11444;BME280;5778;47.856;12.154;2023-07-20T00:06:27;96226.94;;;18.63;100.00
11444;BME280;5778;47.856;12.154;2023-07-20T00:08:54;96217.56;;;18.60;100.00
11444;BME280;5778;47.856;12.154;2023-07-20T00:11:21;96205.75;;;18.70;100.00
11444;BME280;5778;47.856;12.154;2023-07-20T00:13:48;96212.66;;;18.84;100.00
11444;BME280;5778;47.856;12.154;2023-07-20T00:16:16;96195.69;;;19.06;100.00
11444;BME280;5778;47.856;12.154;2023-07-20T00:18:43;96199.72;;;19.17;100.00
11444;BME280;5778;47.856;12.154;2023-07-20T00:21:10;96205.16;;;19.03;100.00
11444;BME280;5778;47.856;12.154;2023-07-20T00:23:37;96222.97;;;18.82;100.00
11444;BME280;5778;47.856;12.154;2023-07-20T00:26:04;96221.41;;;18.90;100.00
11444;BME280;5778;47.856;12.154;2023-07-20T00:28:31;96208.28;;;19.19;100.00
11444;BME280;5778;47.856;12.154;2023-07-20T00:30:59;96199.84;;;19.34;100.00
11444;BME280;5778;47.856;12.154;2023-07-20T00:33:27;96193.22;;;19.40;100.00
11444;BME280;5778;47.856;12.154;2023-07-20T00:35:54;96198.69;;;19.57;100.00
11444;BME280;5778;47.856;12.154;2023-07-20T00:38:21;96201.25;;;19.62;100.00
11444;BME280;5778;47.856;12.154;2023-07-20T00:40:48;96214.41;;;19.11;100.00
11444;BME280;5778;47.856;12.154;2023-07-20T00:43:17;96225.59;;;18.74;100.00
11444;BME280;5778;47.856;12.154;2023-07-20T00:45:44;96238.97;;;18.65;100.00
11444;BME280;5778;47.856;12.154;2023-07-20T00:48:12;96235.50;;;18.65;100.00
11444;BME280;5778;47.856;12.154;2023-07-20T00:50:41;96238.97;;;18.65;100.00
11444;BME280;5778;47.856;12.154;2023-07-20T00:53:08;96238.06;;;18.70;100.00
11444;BME280;5778;47.856;12.154;2023-07-20T00:55:35;96232.22;;;18.54;100.00
11444;BME280;5778;47.856;12.154;2023-07-20T00:58:03;96224.00;;;18.37;100.00
11444;BME280;5778;47.856;12.154;2023-07-20T01:00:30;96206.22;;;18.50;100.00
11444;BME280;5778;47.856;12.154;2023-07-20T01:02:57;96205.00;;;18.56;100.00
11444;BME280;5778;47.856;12.154;2023-07-20T01:05:33;96215.53;;;18.17;100.00
11444;BME280;5778;47.856;12.154;2023-07-20T01:08:12;96208.28;;;18.04;100.00
11444;BME280;5778;47.856;12.154;2023-07-20T01:10:47;96207.22;;;18.54;100.00
11444;BME280;5778;47.856;12.154;2023-07-20T01:13:17;96199.56;;;18.69;100.00
11444;BME280;5778;47.856;12.154;2023-07-20T01:15:49;96183.56;;;18.51;100.00
11444;BME280;5778;47.856;12.154;2023-07-20T01:18:16;96188.28;;;18.45;100.00
11444;BME280;5778;47.856;12.154;2023-07-20T01:20:44;96191.22;;;18.79;100.00
11444;BME280;5778;47.856;12.154;2023-07-20T01:26:21;96186.94;;;18.78;100.00
11444;BME280;5778;47.856;12.154;2023-07-20T01:29:17;96196.38;;;18.67;100.00
11444;BME280;5778;47.856;12.154;2023-07-20T01:31:52;96204.44;;;18.45;100.00
11444;BME280;5778;47.856;12.154;2023-07-20T01:34:22;96200.72;;;18.77;100.00
11444;BME280;5778;47.856;12.154;2023-07-20T01:36:50;96192.44;;;18.95;100.00
11444;BME280;5778;47.856;12.154;2023-07-20T01:39:20;96182.19;;;19.06;100.00
11444;BME280;5778;47.856;12.154;2023-07-20T01:41:47;96180.59;;;19.27;100.00
11444;BME280;5778;47.856;12.154;2023-07-20T01:44:15;96182.72;;;18.86;100.00
11444;BME280;5778;47.856;12.154;2023-07-20T01:46:42;96188.81;;;19.00;100.00
11444;BME280;5778;47.856;12.154;2023-07-20T01:49:10;96191.16;;;18.71;100.00
11444;BME280;5778;47.856;12.154;2023-07-20T01:51:37;96169.63;;;18.71;100.00
11444;BME280;5778;47.856;12.154;2023-07-20T01:54:04;96182.06;;;19.11;100.00
11444;BME280;5778;47.856;12.154;2023-07-20T01:56:31;96184.44;;;18.82;100.00
11444;BME280;5778;47.856;12.154;2023-07-20T01:58:58;96183.69;;;18.90;100.00
11444;BME280;5778;47.856;12.154;2023-07-20T02:01:25;96183.69;;;18.90;100.00
11444;BME280;5778;47.856;12.154;2023-07-20T02:03:54;96176.84;;;18.84;100.00
11444;BME280;5778;47.856;12.154;2023-07-20T02:06:22;96178.28;;;18.46;100.00
11444;BME280;5778;47.856;12.154;2023-07-20T02:08:50;96181.91;;;18.28;100.00
11444;BME280;5778;47.856;12.154;2023-07-20T02:11:18;96182.84;;;18.37;100.00
11444;BME280;5778;47.856;12.154;2023-07-20T02:13:45;96186.59;;;18.49;100.00
11444;BME280;5778;47.856;12.154;2023-07-20T02:16:11;96201.88;;;18.27;100.00
11444;BME280;5778;47.856;12.154;2023-07-20T02:18:38;96198.72;;;18.60;100.00
11444;BME280;5778;47.856;12.154;2023-07-20T02:21:07;96195.59;;;18.18;100.00
11444;BME280;5778;47.856;12.154;2023-07-20T02:23:35;96198.25;;;18.31;100.00
11444;BME280;5778;47.856;12.154;2023-07-20T02:26:02;96187.91;;;18.25;100.00
11444;BME280;5778;47.856;12.154;2023-07-20T02:28:29;96186.78;;;18.04;100.00
11444;BME280;5778;47.856;12.154;2023-07-20T02:30:56;96193.94;;;18.08;100.00
11444;BME280;5778;47.856;12.154;2023-07-20T02:33:23;96190.94;;;18.10;100.00
11444;BME280;5778;47.856;12.154;2023-07-20T02:35:49;96188.31;;;18.18;100.00
11444;BME280;5778;47.856;12.154;2023-07-20T02:38:17;96186.53;;;18.27;100.00
11444;BME280;5778;47.856;12.154;2023-07-20T02:40:46;96196.09;;;18.20;100.00
11444;BME280;5778;47.856;12.154;2023-07-20T02:43:13;96198.69;;;18.25;100.00
11444;BME280;5778;47.856;12.154;2023-07-20T02:45:40;96203.09;;;18.07;100.00
11444;BME280;5778;47.856;12.154;2023-07-20T02:48:08;96201.72;;;18.10;100.00
11444;BME280;5778;47.856;12.154;2023-07-20T02:50:35;96198.59;;;18.16;100.00
11444;BME280;5778;47.856;12.154;2023-07-20T02:53:02;96203.94;;;18.30;100.00
11444;BME280;5778;47.856;12.154;2023-07-20T02:55:29;96215.84;;;18.02;100.00
11444;BME280;5778;47.856;12.154;2023-07-20T02:57:58;96209.91;;;17.91;100.00
11444;BME280;5778;47.856;12.154;2023-07-20T03:00:25;96213.28;;;17.83;100.00
11444;BME280;5778;47.856;12.154;2023-07-20T03:02:51;96216.53;;;18.21;100.00
11444;BME280;5778;47.856;12.154;2023-07-20T03:05:21;96197.72;;;18.56;100.00
11444;BME280;5778;47.856;12.154;2023-07-20T03:07:49;96198.53;;;18.43;100.00
11444;BME280;5778;47.856;12.154;2023-07-20T03:10:16;96203.06;;;18.21;100.00
11444;BME280;5778;47.856;12.154;2023-07-20T03:12:43;96199.31;;;18.08;100.00
11444;BME280;5778;47.856;12.154;2023-07-20T03:15:11;96200.09;;;18.22;100.00
11444;BME280;5778;47.856;12.154;2023-07-20T03:17:39;96195.19;;;18.38;100.00
11444;BME280;5778;47.856;12.154;2023-07-20T03:20:07;96208.25;;;18.31;100.00
11444;BME280;5778;47.856;12.154;2023-07-20T03:22:35;96201.88;;;18.27;100.00
11444;BME280;5778;47.856;12.154;2023-07-20T03:25:03;96194.50;;;18.19;100.00
11444;BME280;5778;47.856;12.154;2023-07-20T03:27:31;96186.56;;;18.14;100.00
11444;BME280;5778;47.856;12.154;2023-07-20T03:29:59;96185.28;;;18.47;100.00
11444;BME280;5778;47.856;12.154;2023-07-20T03:32:28;96175.88;;;18.58;100.00
11444;BME280;5778;47.856;12.154;2023-07-20T03:34:55;96178.44;;;18.27;100.00
11444;BME280;5778;47.856;12.154;2023-07-20T03:37:22;96194.91;;;18.26;100.00
11444;BME280;5778;47.856;12.154;2023-07-20T03:39:49;96202.28;;;18.20;100.00
11444;BME280;5778;47.856;12.154;2023-07-20T03:42:16;96207.75;;;18.15;100.00
11444;BME280;5778;47.856;12.154;2023-07-20T03:44:43;96207.28;;;18.13;100.00
11444;BME280;5778;47.856;12.154;2023-07-20T03:47:10;96211.28;;;17.89;100.00
11444;BME280;5778;47.856;12.154;2023-07-20T03:49:38;96211.75;;;18.04;100.00
11444;BME280;5778;47.856;12.154;2023-07-20T03:52:06;96203.38;;;18.19;100.00
11444;BME280;5778;47.856;12.154;2023-07-20T03:54:32;96203.97;;;18.16;100.00
11444;BME280;5778;47.856;12.154;2023-07-20T03:56:59;96200.78;;;18.14;100.00
11444;BME280;5778;47.856;12.154;2023-07-20T03:59:27;96206.78;;;18.11;100.00
11444;BME280;5778;47.856;12.154;2023-07-20T04:01:54;96212.75;;;18.08;100.00
11444;BME280;5778;47.856;12.154;2023-07-20T04:04:20;96211.84;;;18.13;100.00
11444;BME280;5778;47.856;12.154;2023-07-20T04:06:49;96224.44;;;17.90;100.00
11444;BME280;5778;47.856;12.154;2023-07-20T04:09:16;96252.34;;;17.81;100.00
11444;BME280;5778;47.856;12.154;2023-07-20T04:11:43;96266.47;;;17.73;100.00
11444;BME280;5778;47.856;12.154;2023-07-20T04:14:09;96270.06;;;17.68;100.00
11444;BME280;5778;47.856;12.154;2023-07-20T04:16:36;96290.97;;;17.58;100.00
11444;BME280;5778;47.856;12.154;2023-07-20T04:19:03;96285.59;;;17.58;100.00
11444;BME280;5778;47.856;12.154;2023-07-20T04:21:30;96281.91;;;17.54;100.00
11444;BME280;5778;47.856;12.154;2023-07-20T04:23:59;96286.88;;;17.60;100.00
11444;BME280;5778;47.856;12.154;2023-07-20T04:26:26;96286.09;;;17.46;100.00
11444;BME280;5778;47.856;12.154;2023-07-20T04:28:53;96279.63;;;17.61;100.00
11444;BME280;5778;47.856;12.154;2023-07-20T04:31:35;96277.59;;;17.53;100.00
11444;BME280;5778;47.856;12.154;2023-07-20T04:34:03;96273.53;;;17.55;100.00
11444;BME280;5778;47.856;12.154;2023-07-20T04:36:32;96278.03;;;17.60;100.00
11444;BME280;5778;47.856;12.154;2023-07-20T04:39:00;96278.13;;;17.55;100.00
11444;BME280;5778;47.856;12.154;2023-07-20T04:41:33;96269.06;;;17.51;100.00
11444;BME280;5778;47.856;12.154;2023-07-20T04:44:01;96282.50;;;17.51;100.00
11444;BME280;5778;47.856;12.154;2023-07-20T04:46:29;96280.38;;;17.48;100.00
11444;BME280;5778;47.856;12.154;2023-07-20T04:48:58;96281.38;;;17.38;100.00
11444;BME280;5778;47.856;12.154;2023-07-20T04:51:28;96270.31;;;17.40;100.00
11444;BME280;5778;47.856;12.154;2023-07-20T04:53:55;96275.41;;;17.41;100.00
11444;BME280;5778;47.856;12.154;2023-07-20T04:56:25;96282.59;;;17.46;100.00
11444;BME280;5778;47.856;12.154;2023-07-20T04:58:54;96289.75;;;17.50;100.00
11444;BME280;5778;47.856;12.154;2023-07-20T05:01:21;96305.56;;;17.38;100.00
11444;BME280;5778;47.856;12.154;2023-07-20T05:03:48;96312.28;;;17.36;100.00
11444;BME280;5778;47.856;12.154;2023-07-20T05:06:15;96309.19;;;17.29;100.00
11444;BME280;5778;47.856;12.154;2023-07-20T05:08:41;96304.19;;;17.41;100.00
11444;BME280;5778;47.856;12.154;2023-07-20T05:11:09;96300.09;;;17.43;100.00
11444;BME280;5778;47.856;12.154;2023-07-20T05:13:37;96293.81;;;17.48;100.00
11444;BME280;5778;47.856;12.154;2023-07-20T05:16:05;96288.84;;;17.41;100.00
11444;BME280;5778;47.856;12.154;2023-07-20T05:18:32;96294.09;;;17.33;100.00
11444;BME280;5778;47.856;12.154;2023-07-20T05:20:59;96294.16;;;17.28;100.00
11444;BME280;5778;47.856;12.154;2023-07-20T05:23:26;96299.63;;;17.23;100.00
11444;BME280;5778;47.856;12.154;2023-07-20T05:25:54;96301.00;;;17.20;100.00
11444;BME280;5778;47.856;12.154;2023-07-20T05:28:22;96303.78;;;17.15;100.00
11444;BME280;5778;47.856;12.154;2023-07-20T05:30:50;96307.69;;;17.23;100.00
11444;BME280;5778;47.856;12.154;2023-07-20T05:33:18;96312.53;;;17.21;100.00
11444;BME280;5778;47.856;12.154;2023-07-20T05:35:44;96311.09;;;17.10;100.00
11444;BME280;5778;47.856;12.154;2023-07-20T05:38:11;96321.44;;;17.03;100.00
11444;BME280;5778;47.856;12.154;2023-07-20T05:40:40;96326.25;;;17.70;100.00
11444;BME280;5778;47.856;12.154;2023-07-20T05:43:07;96318.00;;;17.93;100.00
11444;BME280;5778;47.856;12.154;2023-07-20T05:45:34;96311.53;;;18.21;100.00
11444;BME280;5778;47.856;12.154;2023-07-20T05:48:03;96311.94;;;18.28;100.00
11444;BME280;5778;47.856;12.154;2023-07-20T05:50:30;96314.44;;;18.11;100.00
11444;BME280;5778;47.856;12.154;2023-07-20T05:52:57;96323.50;;;18.29;100.00
11444;BME280;5778;47.856;12.154;2023-07-20T05:55:24;96322.09;;;18.18;100.00
11444;BME280;5778;47.856;12.154;2023-07-20T05:57:50;96321.50;;;17.94;100.00
11444;BME280;5778;47.856;12.154;2023-07-20T06:00:18;96321.28;;;17.77;100.00
11444;BME280;5778;47.856;12.154;2023-07-20T06:02:51;96317.91;;;17.85;100.00
11444;BME280;5778;47.856;12.154;2023-07-20T06:05:21;96327.91;;;17.98;100.00
11444;BME280;5778;47.856;12.154;2023-07-20T06:07:49;96319.31;;;17.50;100.00
11444;BME280;5778;47.856;12.154;2023-07-20T06:10:16;96322.91;;;17.46;100.00
11444;BME280;5778;47.856;12.154;2023-07-20T06:12:42;96328.38;;;17.41;100.00
11444;BME280;5778;47.856;12.154;2023-07-20T06:15:24;96328.28;;;18.05;100.00
11444;BME280;5778;47.856;12.154;2023-07-20T06:17:51;96325.84;;;17.63;100.00
11444;BME280;5778;47.856;12.154;2023-07-20T06:20:19;96327.34;;;17.69;100.00
11444;BME280;5778;47.856;12.154;2023-07-20T06:22:46;96328.03;;;17.61;100.00
11444;BME280;5778;47.856;12.154;2023-07-20T06:25:13;96324.78;;;17.45;100.00
11444;BME280;5778;47.856;12.154;2023-07-20T06:27:42;96322.88;;;17.78;100.00
11444;BME280;5778;47.856;12.154;2023-07-20T06:30:10;96328.72;;;17.66;100.00
11444;BME280;5778;47.856;12.154;2023-07-20T06:32:38;96327.28;;;17.42;100.00
11444;BME280;5778;47.856;12.154;2023-07-20T06:35:05;96326.50;;;17.23;100.00
11444;BME280;5778;47.856;12.154;2023-07-20T06:37:35;96328.00;;;17.29;100.00
11444;BME280;5778;47.856;12.154;2023-07-20T06:40:03;96329.25;;;17.18;100.00
11444;BME280;5778;47.856;12.154;2023-07-20T06:42:30;96330.34;;;17.35;100.00
11444;BME280;5778;47.856;12.154;2023-07-20T06:44:57;96328.72;;;17.66;100.00
11444;BME280;5778;47.856;12.154;2023-07-20T06:47:24;96321.91;;;17.42;100.00
11444;BME280;5778;47.856;12.154;2023-07-20T06:49:51;96324.41;;;18.11;100.00
11444;BME280;5778;47.856;12.154;2023-07-20T06:52:18;96317.91;;;17.98;100.00
11444;BME280;5778;47.856;12.154;2023-07-20T06:54:47;96308.34;;;18.60;100.00
11444;BME280;5778;47.856;12.154;2023-07-20T06:57:13;96294.19;;;18.41;100.00
11444;BME280;5778;47.856;12.154;2023-07-20T06:59:40;96301.59;;;18.35;100.00
11444;BME280;5778;47.856;12.154;2023-07-20T07:02:07;96297.41;;;18.43;100.00
11444;BME280;5778;47.856;12.154;2023-07-20T07:04:34;96309.16;;;18.20;100.00
11444;BME280;5778;47.856;12.154;2023-07-20T07:07:01;96311.06;;;18.33;100.00
11444;BME280;5778;47.856;12.154;2023-07-20T07:09:28;96306.97;;;18.84;100.00
11444;BME280;5778;47.856;12.154;2023-07-20T07:11:57;96300.84;;;18.57;100.00
11444;BME280;5778;47.856;12.154;2023-07-20T07:14:24;96317.09;;;18.65;100.00
11444;BME280;5778;47.856;12.154;2023-07-20T07:16:51;96313.59;;;18.65;100.00
11444;BME280;5778;47.856;12.154;2023-07-20T07:19:18;96318.34;;;18.32;100.00
11444;BME280;5778;47.856;12.154;2023-07-20T07:21:45;96320.50;;;17.90;100.00
11444;BME280;5778;47.856;12.154;2023-07-20T07:24:12;96325.41;;;18.15;100.00
11444;BME280;5778;47.856;12.154;2023-07-20T07:26:39;96314.28;;;18.70;100.00
11444;BME280;5778;47.856;12.154;2023-07-20T07:29:08;96304.47;;;19.10;100.00
11444;BME280;5778;47.856;12.154;2023-07-20T07:31:35;96299.38;;;19.22;100.00
11444;BME280;5778;47.856;12.154;2023-07-20T07:34:03;96302.78;;;19.14;100.00
11444;BME280;5778;47.856;12.154;2023-07-20T07:36:30;96311.31;;;18.94;100.00
11444;BME280;5778;47.856;12.154;2023-07-20T07:38:58;96299.97;;;18.48;100.00
11444;BME280;5778;47.856;12.154;2023-07-20T07:41:25;96306.97;;;18.49;100.00
11444;BME280;5778;47.856;12.154;2023-07-20T07:43:51;96300.78;;;19.06;100.00
11444;BME280;5778;47.856;12.154;2023-07-20T07:46:20;96297.06;;;19.29;100.00
11444;BME280;5778;47.856;12.154;2023-07-20T07:48:47;96299.13;;;19.32;100.00
11444;BME280;5778;47.856;12.154;2023-07-20T07:51:14;96300.72;;;19.33;100.00
11444;BME280;5778;47.856;12.154;2023-07-20T07:53:41;96301.78;;;19.54;100.00
11444;BME280;5778;47.856;12.154;2023-07-20T07:56:09;96300.38;;;19.56;100.00
11444;BME280;5778;47.856;12.154;2023-07-20T07:58:36;96295.25;;;19.77;100.00
11444;BME280;5778;47.856;12.154;2023-07-20T08:01:03;96296.06;;;19.47;100.00
11444;BME280;5778;47.856;12.154;2023-07-20T08:03:31;96291.91;;;19.41;100.00
11444;BME280;5778;47.856;12.154;2023-07-20T08:05:58;96293.84;;;19.49;100.00
11444;BME280;5778;47.856;12.154;2023-07-20T08:08:26;96300.84;;;19.80;100.00
11444;BME280;5778;47.856;12.154;2023-07-20T08:10:53;96294.47;;;19.76;100.00
11444;BME280;5778;47.856;12.154;2023-07-20T08:13:20;96300.56;;;19.60;100.00
11444;BME280;5778;47.856;12.154;2023-07-20T08:15:49;96292.34;;;19.65;100.00
11444;BME280;5778;47.856;12.154;2023-07-20T08:18:16;96293.88;;;19.88;100.00
11444;BME280;5778;47.856;12.154;2023-07-20T08:20:45;96288.22;;;20.06;100.00
11444;BME280;5778;47.856;12.154;2023-07-20T08:23:12;96290.84;;;19.81;100.00
11444;BME280;5778;47.856;12.154;2023-07-20T08:25:39;96295.44;;;19.80;100.00
11444;BME280;5778;47.856;12.154;2023-07-20T08:28:09;96295.78;;;19.87;100.00
11444;BME280;5778;47.856;12.154;2023-07-20T08:30:40;96300.16;;;19.75;100.00
11444;BME280;5778;47.856;12.154;2023-07-20T08:33:08;96290.28;;;20.01;100.00
11444;BME280;5778;47.856;12.154;2023-07-20T08:35:35;96294.97;;;20.73;100.00
11444;BME280;5778;47.856;12.154;2023-07-20T08:38:04;96290.84;;;20.76;100.00
11444;BME280;5778;47.856;12.154;2023-07-20T08:40:31;96286.50;;;20.66;100.00
11444;BME280;5778;47.856;12.154;2023-07-20T08:42:58;96288.28;;;20.88;100.00
11444;BME280;5778;47.856;12.154;2023-07-20T08:45:27;96286.41;;;21.22;100.00
11444;BME280;5778;47.856;12.154;2023-07-20T08:47:56;96276.22;;;21.11;100.00
11444;BME280;5778;47.856;12.154;2023-07-20T08:50:25;96278.75;;;21.33;100.00
11444;BME280;5778;47.856;12.154;2023-07-20T08:52:54;96274.63;;;21.18;100.00
11444;BME280;5778;47.856;12.154;2023-07-20T08:55:25;96273.22;;;21.12;100.00
11444;BME280;5778;47.856;12.154;2023-07-20T08:57:54;96269.91;;;21.78;100.00
11444;BME280;5778;47.856;12.154;2023-07-20T09:00:22;96274.16;;;21.88;100.00
11444;BME280;5778;47.856;12.154;2023-07-20T09:02:50;96258.06;;;21.37;100.00
11444;BME280;5778;47.856;12.154;2023-07-20T09:05:17;96264.97;;;21.80;100.00
11444;BME280;5778;47.856;12.154;2023-07-20T09:07:45;96260.47;;;22.22;100.00
11444;BME280;5778;47.856;12.154;2023-07-20T09:10:12;96265.72;;;21.89;100.00
11444;BME280;5778;47.856;12.154;2023-07-20T09:12:41;96268.38;;;21.52;100.00
11444;BME280;5778;47.856;12.154;2023-07-20T09:15:09;96270.19;;;21.85;100.00
11444;BME280;5778;47.856;12.154;2023-07-20T09:17:37;96277.34;;;21.98;100.00
11444;BME280;5778;47.856;12.154;2023-07-20T09:20:05;96268.59;;;22.22;100.00
11444;BME280;5778;47.856;12.154;2023-07-20T09:22:34;96263.53;;;22.49;100.00
11444;BME280;5778;47.856;12.154;2023-07-20T09:25:01;96270.97;;;22.61;100.00
11444;BME280;5778;47.856;12.154;2023-07-20T09:27:35;96265.34;;;22.37;100.00
11444;BME280;5778;47.856;12.154;2023-07-20T09:30:05;96269.72;;;22.79;100.00
11444;BME280;5778;47.856;12.154;2023-07-20T09:32:38;96259.31;;;22.81;100.00
11444;BME280;5778;47.856;12.154;2023-07-20T09:35:05;96258.25;;;22.73;100.00
11444;BME280;5778;47.856;12.154;2023-07-20T09:37:33;96267.78;;;22.59;100.00
11444;BME280;5778;47.856;12.154;2023-07-20T09:40:00;96263.72;;;21.61;100.00
11444;BME280;5778;47.856;12.154;2023-07-20T09:42:28;96264.69;;;22.40;100.00
11444;BME280;5778;47.856;12.154;2023-07-20T09:44:55;96249.53;;;22.47;100.00
11444;BME280;5778;47.856;12.154;2023-07-20T09:47:25;96252.63;;;22.29;100.00
11444;BME280;5778;47.856;12.154;2023-07-20T09:49:58;96248.66;;;23.37;100.00
11444;BME280;5778;47.856;12.154;2023-07-20T09:52:25;96252.97;;;22.56;100.00
11444;BME280;5778;47.856;12.154;2023-07-20T09:54:53;96251.84;;;22.57;100.00
11444;BME280;5778;47.856;12.154;2023-07-20T09:57:21;96247.91;;;22.75;100.00
11444;BME280;5778;47.856;12.154;2023-07-20T09:59:48;96252.13;;;22.85;100.00
11444;BME280;5778;47.856;12.154;2023-07-20T10:02:21;96248.84;;;22.50;100.00
11444;BME280;5778;47.856;12.154;2023-07-20T10:04:53;96261.16;;;22.48;93.61
11444;BME280;5778;47.856;12.154;2023-07-20T10:07:22;96245.06;;;22.14;100.00
11444;BME280;5778;47.856;12.154;2023-07-20T10:09:51;96247.91;;;22.55;100.00
11444;BME280;5778;47.856;12.154;2023-07-20T10:12:22;96249.47;;;22.97;100.00
11444;BME280;5778;47.856;12.154;2023-07-20T10:14:54;96242.25;;;23.01;92.61
11444;BME280;5778;47.856;12.154;2023-07-20T10:17:25;96232.59;;;23.12;97.58
11444;BME280;5778;47.856;12.154;2023-07-20T10:19:55;96233.25;;;23.09;97.51
11444;BME280;5778;47.856;12.154;2023-07-20T10:22:26;96245.91;;;22.84;97.95
11444;BME280;5778;47.856;12.154;2023-07-20T10:24:54;96244.38;;;22.95;98.16
11444;BME280;5778;47.856;12.154;2023-07-20T10:27:24;96230.75;;;23.04;91.45
11444;BME280;5778;47.856;12.154;2023-07-20T10:29:51;96244.53;;;22.99;96.52
11444;BME280;5778;47.856;12.154;2023-07-20T10:32:20;96232.13;;;23.87;100.00
11444;BME280;5778;47.856;12.154;2023-07-20T10:34:50;96240.16;;;23.27;94.43
11444;BME280;5778;47.856;12.154;2023-07-20T10:37:53;96234.53;;;23.44;91.25
11444;BME280;5778;47.856;12.154;2023-07-20T10:40:24;96228.41;;;23.91;81.64
11444;BME280;5778;47.856;12.154;2023-07-20T10:42:56;96226.91;;;23.82;91.98
11444;BME280;5778;47.856;12.154;2023-07-20T10:45:36;96224.59;;;23.48;94.11
11444;BME280;5778;47.856;12.154;2023-07-20T10:48:06;96226.09;;;23.04;94.04
11444;BME280;5778;47.856;12.154;2023-07-20T10:50:40;96234.84;;;23.30;83.80
11444;BME280;5778;47.856;12.154;2023-07-20T10:53:15;96225.06;;;23.62;87.65
11444;BME280;5778;47.856;12.154;2023-07-20T10:55:42;96219.22;;;23.72;87.06
11444;BME280;5778;47.856;12.154;2023-07-20T10:58:10;96222.84;;;23.88;95.16
11444;BME280;5778;47.856;12.154;2023-07-20T11:00:54;96216.06;;;24.18;100.00
11444;BME280;5778;47.856;12.154;2023-07-20T11:03:29;96221.88;;;23.48;93.60
11444;BME280;5778;47.856;12.154;2023-07-20T11:05:57;96214.50;;;24.17;90.51
11444;BME280;5778;47.856;12.154;2023-07-20T11:08:41;96212.41;;;24.50;84.62
11444;BME280;5778;47.856;12.154;2023-07-20T11:11:21;96208.16;;;25.28;74.53
11444;BME280;5778;47.856;12.154;2023-07-20T11:13:57;96202.38;;;24.14;83.20
11444;BME280;5778;47.856;12.154;2023-07-20T11:16:35;96206.78;;;25.49;80.41
11444;BME280;5778;47.856;12.154;2023-07-20T11:19:02;96201.25;;;24.91;69.27
11444;BME280;5778;47.856;12.154;2023-07-20T11:21:29;96200.50;;;24.78;87.56
11444;BME280;5778;47.856;12.154;2023-07-20T11:24:04;96193.91;;;24.79;88.06
11444;BME280;5778;47.856;12.154;2023-07-20T11:26:40;96186.66;;;24.83;82.15
11444;BME280;5778;47.856;12.154;2023-07-20T11:29:06;96187.38;;;24.68;92.65
11444;BME280;5778;47.856;12.154;2023-07-20T11:31:35;96189.72;;;23.94;92.31
11444;BME280;5778;47.856;12.154;2023-07-20T11:34:02;96187.50;;;24.48;92.51
11444;BME280;5778;47.856;12.154;2023-07-20T11:36:29;96177.06;;;24.50;86.81
11444;BME280;5778;47.856;12.154;2023-07-20T11:38:57;96181.63;;;25.25;79.60
11444;BME280;5778;47.856;12.154;2023-07-20T11:41:25;96179.22;;;24.56;92.29
11444;BME280;5778;47.856;12.154;2023-07-20T11:43:54;96170.53;;;24.39;84.47
11444;BME280;5778;47.856;12.154;2023-07-20T11:46:21;96173.97;;;24.00;96.67
11444;BME280;5778;47.856;12.154;2023-07-20T11:48:48;96175.94;;;24.51;97.32
11444;BME280;5778;47.856;12.154;2023-07-20T11:51:16;96176.00;;;24.78;93.56
11444;BME280;5778;47.856;12.154;2023-07-20T11:53:44;96175.28;;;24.42;87.15
11444;BME280;5778;47.856;12.154;2023-07-20T11:56:11;96164.09;;;24.83;100.00
11444;BME280;5778;47.856;12.154;2023-07-20T11:58:43;96162.59;;;24.46;97.82
11444;BME280;5778;47.856;12.154;2023-07-20T12:01:12;96170.47;;;24.11;98.42
11444;BME280;5778;47.856;12.154;2023-07-20T12:03:39;96162.09;;;24.56;100.00
11444;BME280;5778;47.856;12.154;2023-07-20T12:06:06;96164.56;;;24.85;100.00
11444;BME280;5778;47.856;12.154;2023-07-20T12:08:34;96160.97;;;24.17;98.33
11444;BME280;5778;47.856;12.154;2023-07-20T12:11:01;96157.25;;;24.61;100.00
11444;BME280;5778;47.856;12.154;2023-07-20T12:13:36;96149.75;;;24.98;100.00
11444;BME280;5778;47.856;12.154;2023-07-20T12:16:09;96144.88;;;23.52;100.00
11444;BME280;5778;47.856;12.154;2023-07-20T12:18:37;96147.97;;;24.50;100.00
11444;BME280;5778;47.856;12.154;2023-07-20T12:21:05;96148.72;;;24.75;100.00
11444;BME280;5778;47.856;12.154;2023-07-20T12:23:36;96139.03;;;24.89;100.00
11444;BME280;5778;47.856;12.154;2023-07-20T12:26:06;96134.84;;;25.35;100.00
11444;BME280;5778;47.856;12.154;2023-07-20T12:28:38;96133.88;;;25.58;97.00
11444;BME280;5778;47.856;12.154;2023-07-20T12:31:05;96137.47;;;25.47;100.00
11444;BME280;5778;47.856;12.154;2023-07-20T12:33:33;96128.88;;;24.23;86.71
11444;BME280;5778;47.856;12.154;2023-07-20T12:36:00;96127.34;;;24.89;89.71
11444;BME280;5778;47.856;12.154;2023-07-20T12:38:27;96131.97;;;24.73;87.96
11444;BME280;5778;47.856;12.154;2023-07-20T12:40:56;96126.25;;;24.78;88.30
11444;BME280;5778;47.856;12.154;2023-07-20T12:43:24;96123.50;;;24.90;83.22
11444;BME280;5778;47.856;12.154;2023-07-20T12:45:51;96121.22;;;25.35;94.86
11444;BME280;5778;47.856;12.154;2023-07-20T12:48:17;96116.38;;;25.75;95.89
11444;BME280;5778;47.856;12.154;2023-07-20T12:50:46;96106.16;;;26.03;90.11
11444;BME280;5778;47.856;12.154;2023-07-20T12:53:13;96105.53;;;26.44;96.47
11444;BME280;5778;47.856;12.154;2023-07-20T12:55:40;96101.59;;;26.79;92.68
11444;BME280;5778;47.856;12.154;2023-07-20T12:58:08;96102.66;;;26.94;82.29
11444;BME280;5778;47.856;12.154;2023-07-20T13:00:35;96096.94;;;26.80;73.42
11444;BME280;5778;47.856;12.154;2023-07-20T13:03:01;96097.94;;;26.72;82.88